Time,TemperatureF,DewpointF,PressureIn,WindDirection,WindDirectionDegrees,WindSpeedMPH,WindSpeedGustMPH,Humidity,HourlyPrecipIn,Conditions,Clouds,dailyrainin,SoftwareType,DateUTC
2013-07-29 00:02:00,72.0,71.0,29.88,SSE,147,0.0,2.0,97,0.01,,,0.14,,2013-07-29 04:02:00,
2013-07-29 00:12:00,72.0,71.0,29.88,SSE,153,0.0,5.0,97,0.01,,,0.14,,2013-07-29 04:12:00,
2013-07-29 00:22:00,72.0,71.0,29.90,SSE,153,0.0,0.0,97,0.01,,,0.14,,2013-07-29 04:22:00,
2013-07-29 00:33:00,72.0,71.0,29.91,SSE,153,0.0,2.0,97,0.01,,,0.14,,2013-07-29 04:33:00,
2013-07-29 00:43:00,72.0,71.0,29.91,SSE,153,1.0,3.0,97,0.02,,,0.15,,2013-07-29 04:43:00,
2013-07-29 00:53:00,72.0,71.0,29.90,WSW,247,1.0,4.0,97,0.05,,,0.19,,2013-07-29 04:53:00,
2013-07-29 01:02:00,72.0,71.0,29.90,South,180,1.0,3.0,97,0.06,,,0.20,,2013-07-29 05:02:00,
2013-07-29 01:22:00,72.0,71.0,29.90,SE,136,1.0,4.0,97,0.07,,,0.21,,2013-07-29 05:22:00,
2013-07-29 01:32:00,72.0,71.0,29.89,WNW,283,1.0,6.0,98,0.07,,,0.21,,2013-07-29 05:32:00,
2013-07-29 01:43:00,68.0,67.0,29.88,South,171,3.0,11.0,96,0.06,,,0.21,,2013-07-29 05:43:00,
2013-07-29 01:53:00,68.0,67.0,29.89,SE,145,5.0,10.0,96,0.02,,,0.21,,2013-07-29 05:53:00,
2013-07-29 02:02:00,68.0,67.0,29.88,SSE,164,1.0,6.0,96,0.01,,,0.21,,2013-07-29 06:02:00,
2013-07-29 02:12:00,69.0,68.0,29.88,SSW,200,1.0,5.0,95,0.00,,,0.21,,2013-07-29 06:12:00,
2013-07-29 02:22:00,69.0,68.0,29.88,SSW,192,3.0,7.0,95,0.00,,,0.21,,2013-07-29 06:22:00,
2013-07-29 02:32:00,68.0,67.0,29.87,SSW,202,2.0,6.0,95,0.00,,,0.21,,2013-07-29 06:32:00,
2013-07-29 02:43:00,68.0,67.0,29.87,South,184,1.0,6.0,95,0.00,,,0.21,,2013-07-29 06:43:00,
2013-07-29 02:52:00,68.0,67.0,29.88,South,184,0.0,4.0,95,0.00,,,0.21,,2013-07-29 06:52:00,
2013-07-29 03:03:00,68.0,67.0,29.88,South,184,2.0,4.0,95,0.00,,,0.21,,2013-07-29 07:03:00,
2013-07-29 03:12:00,68.0,67.0,29.88,South,184,2.0,4.0,95,0.00,,,0.21,,2013-07-29 07:12:00,
2013-07-29 03:23:00,68.0,67.0,29.88,South,184,0.0,0.0,96,0.00,,,0.21,,2013-07-29 07:23:00,
2013-07-29 03:33:00,68.0,67.0,29.89,South,184,1.0,4.0,96,0.00,,,0.21,,2013-07-29 07:33:00,
2013-07-29 03:43:00,68.0,67.0,29.89,South,184,3.0,4.0,96,0.00,,,0.21,,2013-07-29 07:43:00,
2013-07-29 03:53:00,68.0,67.0,29.90,WNW,284,1.0,6.0,96,0.00,,,0.21,,2013-07-29 07:53:00,
2013-07-29 04:02:00,69.0,68.0,29.90,WNW,282,2.0,4.0,97,0.00,,,0.21,,2013-07-29 08:02:00,
2013-07-29 04:12:00,69.0,68.0,29.90,NNW,340,6.0,12.0,97,0.01,,,0.22,,2013-07-29 08:12:00,
2013-07-29 04:22:00,69.0,68.0,29.90,NNW,340,6.0,12.0,97,0.01,,,0.22,,2013-07-29 08:22:00,
2013-07-29 04:33:00,69.0,68.0,29.90,NW,321,2.0,6.0,97,0.01,,,0.22,,2013-07-29 08:33:00,
2013-07-29 04:42:00,69.0,68.0,29.90,NW,321,0.0,1.0,97,0.01,,,0.22,,2013-07-29 08:42:00,
2013-07-29 05:02:00,68.0,67.0,29.90,NW,321,1.0,2.0,97,0.01,,,0.22,,2013-07-29 09:02:00,
2013-07-29 05:12:00,68.0,67.0,29.90,NW,321,0.0,0.0,97,0.00,,,0.22,,2013-07-29 09:12:00,
2013-07-29 05:22:00,68.0,67.0,29.89,NW,321,0.0,0.0,97,0.00,,,0.22,,2013-07-29 09:22:00,
2013-07-29 05:33:00,68.0,67.0,29.89,NW,321,0.0,0.0,97,0.00,,,0.22,,2013-07-29 09:33:00,
2013-07-29 05:43:00,68.0,67.0,29.89,NW,321,0.0,0.0,97,0.00,,,0.22,,2013-07-29 09:43:00,
2013-07-29 05:53:00,68.0,67.0,29.90,NW,321,0.0,0.0,97,0.00,,,0.22,,2013-07-29 09:53:00,
2013-07-29 06:25:00,68.0,67.0,29.91,NW,320,0.0,0.0,98,0.00,,,0.22,,2013-07-29 10:25:00,
2013-07-29 06:48:00,68.0,67.0,29.91,NW,321,0.0,0.0,98,0.00,,,0.22,,2013-07-29 10:48:00,
2013-07-29 06:55:00,68.0,67.0,29.91,NW,321,0.0,0.0,98,0.00,,,0.22,,2013-07-29 10:55:00,
2013-07-29 07:07:00,68.0,67.0,29.91,NW,321,0.0,0.0,98,0.00,,,0.22,,2013-07-29 11:07:00,
2013-07-29 07:38:00,69.0,68.0,29.92,NW,322,1.0,3.0,98,0.00,,,0.22,,2013-07-29 11:38:00,
2013-07-29 07:46:00,69.0,68.0,29.92,NW,322,0.0,0.0,98,0.00,,,0.22,,2013-07-29 11:46:00,
2013-07-29 07:57:00,69.0,68.0,29.92,WNW,295,1.0,5.0,98,0.00,,,0.22,,2013-07-29 11:57:00,
2013-07-29 08:10:00,70.0,69.0,29.93,WNW,286,3.0,5.0,98,0.00,,,0.22,,2013-07-29 12:10:00,
2013-07-29 08:17:00,70.0,69.0,29.93,WNW,285,0.0,5.0,98,0.00,,,0.22,,2013-07-29 12:17:00,
2013-07-29 08:28:00,70.0,69.0,29.93,WNW,285,1.0,4.0,98,0.00,,,0.21,,2013-07-29 12:28:00,
2013-07-29 08:37:00,70.0,69.0,29.94,WNW,284,3.0,5.0,97,0.00,,,0.21,,2013-07-29 12:37:00,
2013-07-29 08:55:00,71.0,69.0,29.94,West,279,1.0,5.0,94,0.00,,,0.21,,2013-07-29 12:55:00,
2013-07-29 09:29:00,72.0,69.0,29.94,West,279,0.0,6.0,91,0.00,,,0.21,,2013-07-29 13:29:00,
2013-07-29 09:37:00,73.0,69.0,29.95,West,269,3.0,6.0,86,0.00,,,0.21,,2013-07-29 13:37:00,
2013-07-29 09:45:00,74.0,69.0,29.95,West,269,0.0,3.0,84,0.00,,,0.21,,2013-07-29 13:45:00,
2013-07-29 10:07:00,75.0,66.0,29.96,WNW,296,2.0,6.0,74,0.00,,,0.21,,2013-07-29 14:07:00,
2013-07-29 10:29:00,77.0,67.0,29.96,WNW,295,0.0,1.0,71,0.00,,,0.21,,2013-07-29 14:29:00,
2013-07-29 10:47:00,78.0,67.0,29.96,West,273,0.0,5.0,68,0.00,,,0.21,,2013-07-29 14:47:00,
2013-07-29 11:10:00,81.0,66.0,29.96,WNW,303,0.0,2.0,61,0.00,,,0.21,,2013-07-29 15:10:00,
2013-07-29 11:17:00,81.0,66.0,29.96,WNW,303,0.0,2.0,61,0.00,,,0.21,,2013-07-29 15:17:00,
2013-07-29 11:25:00,81.0,69.0,29.96,WNW,298,0.0,3.0,66,0.00,,,0.21,,2013-07-29 15:25:00,
2013-07-29 11:55:00,82.0,69.0,29.96,NE,34,0.0,4.0,64,0.00,,,0.21,,2013-07-29 15:55:00,
2013-07-29 12:08:00,80.0,68.0,29.96,SE,132,3.0,9.0,66,0.00,,,0.21,,2013-07-29 16:08:00,
2013-07-29 12:13:00,80.0,68.0,29.96,SE,132,3.0,9.0,66,0.00,,,0.21,,2013-07-29 16:13:00,
2013-07-29 12:24:00,79.0,69.0,29.96,SE,136,0.0,6.0,71,0.00,,,0.21,,2013-07-29 16:24:00,
2013-07-29 12:47:00,81.0,69.0,29.96,ESE,117,0.0,9.0,67,0.00,,,0.21,,2013-07-29 16:47:00,
2013-07-29 12:56:00,81.0,69.0,29.96,ESE,117,0.0,9.0,67,0.00,,,0.21,,2013-07-29 16:56:00,
2013-07-29 13:09:00,81.0,68.0,29.96,ESE,103,0.0,5.0,64,0.00,,,0.21,,2013-07-29 17:09:00,
2013-07-29 13:41:00,79.0,68.0,29.96,SE,144,3.0,7.0,69,0.00,,,0.21,,2013-07-29 17:41:00,
2013-07-29 13:58:00,78.0,67.0,29.96,SE,144,6.0,11.0,70,0.00,,,0.21,,2013-07-29 17:58:00,
2013-07-29 14:07:00,79.0,68.0,29.95,SSE,159,1.0,9.0,69,0.00,,,0.21,,2013-07-29 18:07:00,
2013-07-29 14:16:00,79.0,67.0,29.95,ESE,104,1.0,9.0,66,0.00,,,0.21,,2013-07-29 18:16:00,
2013-07-29 14:27:00,79.0,66.0,29.94,East,98,5.0,10.0,65,0.00,,,0.21,,2013-07-29 18:27:00,
2013-07-29 14:37:00,79.0,66.0,29.94,East,98,5.0,10.0,65,0.00,,,0.21,,2013-07-29 18:37:00,
2013-07-29 14:57:00,79.0,67.0,29.94,SSE,165,7.0,11.0,66,0.00,,,0.21,,2013-07-29 18:57:00,
2013-07-29 15:06:00,79.0,67.0,29.94,South,183,5.0,11.0,66,0.00,,,0.21,,2013-07-29 19:06:00,
2013-07-29 15:17:00,80.0,68.0,29.94,SSE,150,2.0,10.0,67,0.00,,,0.21,,2013-07-29 19:17:00,
2013-07-29 15:39:00,81.0,68.0,29.94,SSE,149,2.0,9.0,65,0.00,,,0.21,,2013-07-29 19:39:00,
2013-07-29 15:47:00,79.0,64.0,29.94,SE,136,4.0,14.0,61,0.00,,,0.21,,2013-07-29 19:47:00,
2013-07-29 15:55:00,79.0,64.0,29.94,SE,136,4.0,14.0,61,0.00,,,0.21,,2013-07-29 19:55:00,
2013-07-29 16:08:00,78.0,65.0,29.94,East,89,3.0,9.0,64,0.00,,,0.21,,2013-07-29 20:08:00,
2013-07-29 16:15:00,79.0,67.0,29.94,SE,142,5.0,10.0,66,0.00,,,0.21,,2013-07-29 20:15:00,
2013-07-29 16:25:00,79.0,68.0,29.94,South,186,3.0,12.0,68,0.00,,,0.21,,2013-07-29 20:25:00,
2013-07-29 16:37:00,79.0,68.0,29.94,SSE,168,2.0,12.0,68,0.00,,,0.21,,2013-07-29 20:37:00,
2013-07-29 16:48:00,79.0,68.0,29.94,SE,146,7.0,12.0,68,0.00,,,0.21,,2013-07-29 20:48:00,
2013-07-29 17:36:00,85.0,60.0,29.94,SW,233,5.0,11.0,43,0.00,,,0.21,,2013-07-29 21:36:00,
2013-07-29 17:49:00,86.0,60.0,29.94,WNW,285,4.0,9.0,42,0.00,,,0.21,,2013-07-29 21:49:00,
2013-07-29 17:58:00,86.0,60.0,29.94,WNW,285,4.0,9.0,42,0.00,,,0.21,,2013-07-29 21:58:00,
2013-07-29 18:38:00,83.0,59.0,29.94,NW,311,4.0,12.0,45,0.00,,,0.21,,2013-07-29 22:38:00,
2013-07-29 18:55:00,83.0,55.0,29.94,WNW,289,6.0,12.0,39,0.00,,,0.21,,2013-07-29 22:55:00,
2013-07-29 19:06:00,82.0,53.0,29.95,WNW,287,4.0,12.0,37,0.00,,,0.21,,2013-07-29 23:06:00,
2013-07-29 19:27:00,82.0,54.0,29.95,NW,324,6.0,12.0,38,0.00,,,0.21,,2013-07-29 23:27:00,
2013-07-29 19:35:00,81.0,52.0,29.96,WNW,302,7.0,11.0,37,0.00,,,0.21,,2013-07-29 23:35:00,
2013-07-29 19:55:00,80.0,52.0,29.97,WSW,254,5.0,10.0,38,0.00,,,0.21,,2013-07-29 23:55:00,
2013-07-29 20:08:00,79.0,52.0,29.97,West,265,3.0,10.0,39,0.00,,,0.21,,2013-07-30 00:08:00,
2013-07-29 20:49:00,77.0,53.0,29.98,West,269,4.0,8.0,44,0.00,,,0.21,,2013-07-30 00:49:00,
2013-07-29 20:55:00,77.0,54.0,29.99,West,269,3.0,6.0,45,0.00,,,0.21,,2013-07-30 00:55:00,
2013-07-29 21:08:00,76.0,54.0,29.99,West,279,1.0,5.0,46,0.00,,,0.21,,2013-07-30 01:08:00,
2013-07-29 21:17:00,76.0,54.0,29.99,West,279,1.0,5.0,46,0.00,,,0.21,,2013-07-30 01:17:00,
2013-07-29 21:38:00,75.0,54.0,30.00,WNW,282,2.0,7.0,48,0.00,,,0.19,,2013-07-30 01:38:00,
2013-07-29 21:45:00,74.0,54.0,30.01,West,281,1.0,5.0,50,0.00,,,0.19,,2013-07-30 01:45:00,
2013-07-29 21:57:00,74.0,54.0,30.01,West,281,1.0,5.0,50,0.00,,,0.19,,2013-07-30 01:57:00,
2013-07-29 22:07:00,73.0,54.0,30.01,West,278,1.0,6.0,52,0.00,,,0.19,,2013-07-30 02:07:00,
2013-07-29 22:15:00,73.0,54.0,30.01,West,278,1.0,6.0,52,0.00,,,0.19,,2013-07-30 02:15:00,
2013-07-29 22:25:00,73.0,54.0,30.01,West,279,4.0,7.0,52,0.00,,,0.19,,2013-07-30 02:25:00,
2013-07-29 22:38:00,73.0,54.0,30.01,West,273,4.0,7.0,52,0.00,,,0.13,,2013-07-30 02:38:00,
2013-07-29 22:46:00,72.0,55.0,30.02,West,273,1.0,3.0,55,0.00,,,0.13,,2013-07-30 02:46:00,
2013-07-29 22:55:00,72.0,55.0,30.02,West,273,1.0,3.0,55,0.00,,,0.13,,2013-07-30 02:55:00,
2013-07-29 23:09:00,72.0,55.0,30.02,West,273,1.0,4.0,55,0.00,,,0.13,,2013-07-30 03:09:00,
2013-07-29 23:26:00,71.0,54.0,30.02,West,273,2.0,5.0,56,0.00,,,0.09,,2013-07-30 03:26:00,
2013-07-29 23:46:00,71.0,55.0,30.02,West,269,2.0,6.0,58,0.00,,,0.09,,2013-07-30 03:46:00,
2013-07-29 23:53:00,71.0,55.0,30.02,West,269,2.0,6.0,58,0.00,,,0.09,,2013-07-30 03:53:00,